sensor_id;sensor_type;location;lat;lon;timestamp;temperature;humidity
2621;DHT22;1320;48.128;11.592;2023-05-24T00:02:22;16.40;99.90
2621;DHT22;1320;48.128;11.592;2023-05-24T00:04:51;16.40;99.90
2621;DHT22;1320;48.128;11.592;2023-05-24T00:07:18;16.40;99.90
2621;DHT22;1320;48.128;11.592;2023-05-24T00:09:44;16.40;99.90
2621;DHT22;1320;48.128;11.592;2023-05-24T00:12:09;16.40;99.90
2621;DHT22;1320;48.128;11.592;2023-05-24T00:14:35;16.40;99.90
2621;DHT22;1320;48.128;11.592;2023-05-24T00:17:01;16.30;99.90
2621;DHT22;1320;48.128;11.592;2023-05-24T00:19:26;16.30;99.90
2621;DHT22;1320;48.128;11.592;2023-05-24T00:21:52;16.30;99.90
2621;DHT22;1320;48.128;11.592;2023-05-24T00:24:18;16.30;99.90
2621;DHT22;1320;48.128;11.592;2023-05-24T00:26:44;16.30;99.90
2621;DHT22;1320;48.128;11.592;2023-05-24T00:29:09;16.30;99.90
2621;DHT22;1320;48.128;11.592;2023-05-24T00:31:35;16.30;99.90
2621;DHT22;1320;48.128;11.592;2023-05-24T00:34:01;16.30;99.90
2621;DHT22;1320;48.128;11.592;2023-05-24T00:36:26;16.30;99.90
2621;DHT22;1320;48.128;11.592;2023-05-24T00:38:52;16.20;99.90
2621;DHT22;1320;48.128;11.592;2023-05-24T00:41:18;16.20;99.90
2621;DHT22;1320;48.128;11.592;2023-05-24T00:43:44;16.20;99.90
2621;DHT22;1320;48.128;11.592;2023-05-24T00:46:17;16.20;99.90
2621;DHT22;1320;48.128;11.592;2023-05-24T00:48:43;16.10;99.90
2621;DHT22;1320;48.128;11.592;2023-05-24T00:51:11;16.10;99.90
2621;DHT22;1320;48.128;11.592;2023-05-24T00:53:37;16.00;99.90
2621;DHT22;1320;48.128;11.592;2023-05-24T00:56:04;16.00;99.90
2621;DHT22;1320;48.128;11.592;2023-05-24T00:58:31;16.00;99.90
2621;DHT22;1320;48.128;11.592;2023-05-24T01:01:01;15.90;99.90
2621;DHT22;1320;48.128;11.592;2023-05-24T01:03:27;15.90;99.90
2621;DHT22;1320;48.128;11.592;2023-05-24T01:06:01;15.90;99.90
2621;DHT22;1320;48.128;11.592;2023-05-24T01:13:46;15.90;99.90
2621;DHT22;1320;48.128;11.592;2023-05-24T01:16:26;15.90;99.90
2621;DHT22;1320;48.128;11.592;2023-05-24T01:18:56;16.00;99.90
2621;DHT22;1320;48.128;11.592;2023-05-24T01:24:38;16.00;99.90
2621;DHT22;1320;48.128;11.592;2023-05-24T01:27:16;15.90;99.90
2621;DHT22;1320;48.128;11.592;2023-05-24T01:29:42;15.80;99.90
2621;DHT22;1320;48.128;11.592;2023-05-24T01:32:07;15.80;99.90
2621;DHT22;1320;48.128;11.592;2023-05-24T01:34:34;15.80;99.90
2621;DHT22;1320;48.128;11.592;2023-05-24T01:36:59;15.80;99.90
2621;DHT22;1320;48.128;11.592;2023-05-24T01:39:28;15.80;99.90
2621;DHT22;1320;48.128;11.592;2023-05-24T01:45:05;15.80;99.90
2621;DHT22;1320;48.128;11.592;2023-05-24T01:48:53;15.80;99.90
2621;DHT22;1320;48.128;11.592;2023-05-24T01:50:48;15.80;99.90
2621;DHT22;1320;48.128;11.592;2023-05-24T01:53:18;15.70;99.90
2621;DHT22;1320;48.128;11.592;2023-05-24T01:55:48;15.70;99.90
2621;DHT22;1320;48.128;11.592;2023-05-24T01:58:18;15.70;99.90
2621;DHT22;1320;48.128;11.592;2023-05-24T02:00:45;15.70;99.90
2621;DHT22;1320;48.128;11.592;2023-05-24T02:03:13;15.70;99.90
2621;DHT22;1320;48.128;11.592;2023-05-24T02:05:40;15.70;99.90
2621;DHT22;1320;48.128;11.592;2023-05-24T02:08:05;15.70;99.90
2621;DHT22;1320;48.128;11.592;2023-05-24T02:10:31;15.70;99.90
2621;DHT22;1320;48.128;11.592;2023-05-24T02:12:57;15.80;99.90
2621;DHT22;1320;48.128;11.592;2023-05-24T02:15:24;15.80;99.90
2621;DHT22;1320;48.128;11.592;2023-05-24T02:17:50;15.70;99.90
2621;DHT22;1320;48.128;11.592;2023-05-24T02:20:19;15.80;99.90
2621;DHT22;1320;48.128;11.592;2023-05-24T02:22:47;15.70;99.90
2621;DHT22;1320;48.128;11.592;2023-05-24T02:25:13;15.80;99.90
2621;DHT22;1320;48.128;11.592;2023-05-24T02:27:38;15.70;99.90
2621;DHT22;1320;48.128;11.592;2023-05-24T02:30:05;15.80;99.90
2621;DHT22;1320;48.128;11.592;2023-05-24T02:32:31;15.80;99.90
2621;DHT22;1320;48.128;11.592;2023-05-24T02:34:57;15.80;99.90
2621;DHT22;1320;48.128;11.592;2023-05-24T02:37:27;15.80;99.90
2621;DHT22;1320;48.128;11.592;2023-05-24T02:39:52;15.80;99.90
2621;DHT22;1320;48.128;11.592;2023-05-24T02:42:18;15.70;99.90
2621;DHT22;1320;48.128;11.592;2023-05-24T02:44:44;15.70;99.90
2621;DHT22;1320;48.128;11.592;2023-05-24T02:47:13;15.70;99.90
2621;DHT22;1320;48.128;11.592;2023-05-24T02:49:39;15.70;99.90
2621;DHT22;1320;48.128;11.592;2023-05-24T02:52:05;15.70;99.90
2621;DHT22;1320;48.128;11.592;2023-05-24T02:54:31;15.70;99.90
2621;DHT22;1320;48.128;11.592;2023-05-24T02:56:56;15.70;99.90
2621;DHT22;1320;48.128;11.592;2023-05-24T02:59:23;15.70;99.90
2621;DHT22;1320;48.128;11.592;2023-05-24T03:01:48;15.70;99.90
2621;DHT22;1320;48.128;11.592;2023-05-24T03:04:14;15.70;99.90
2621;DHT22;1320;48.128;11.592;2023-05-24T03:06:40;15.70;99.90
2621;DHT22;1320;48.128;11.592;2023-05-24T03:09:06;15.70;99.90
2621;DHT22;1320;48.128;11.592;2023-05-24T03:11:31;15.60;99.90
2621;DHT22;1320;48.128;11.592;2023-05-24T03:13:57;15.50;99.90
2621;DHT22;1320;48.128;11.592;2023-05-24T03:16:23;15.50;99.90
2621;DHT22;1320;48.128;11.592;2023-05-24T03:18:50;15.50;99.90
2621;DHT22;1320;48.128;11.592;2023-05-24T03:21:16;15.50;99.90
2621;DHT22;1320;48.128;11.592;2023-05-24T03:23:44;15.50;99.90
2621;DHT22;1320;48.128;11.592;2023-05-24T03:26:09;15.50;99.90
2621;DHT22;1320;48.128;11.592;2023-05-24T03:28:37;15.50;99.90
2621;DHT22;1320;48.128;11.592;2023-05-24T03:31:05;15.50;99.90
2621;DHT22;1320;48.128;11.592;2023-05-24T03:33:31;15.50;99.90
2621;DHT22;1320;48.128;11.592;2023-05-24T03:35:56;15.50;99.90
2621;DHT22;1320;48.128;11.592;2023-05-24T03:38:22;15.50;99.90
2621;DHT22;1320;48.128;11.592;2023-05-24T03:40:48;15.50;99.90
2621;DHT22;1320;48.128;11.592;2023-05-24T03:43:13;15.40;99.90
2621;DHT22;1320;48.128;11.592;2023-05-24T03:45:39;15.50;99.90
2621;DHT22;1320;48.128;11.592;2023-05-24T03:48:05;15.50;99.90
2621;DHT22;1320;48.128;11.592;2023-05-24T03:50:31;15.40;99.90
2621;DHT22;1320;48.128;11.592;2023-05-24T03:52:56;15.40;99.90
2621;DHT22;1320;48.128;11.592;2023-05-24T03:55:22;15.40;99.90
2621;DHT22;1320;48.128;11.592;2023-05-24T03:57:48;15.30;99.90
2621;DHT22;1320;48.128;11.592;2023-05-24T04:00:13;15.30;99.90
2621;DHT22;1320;48.128;11.592;2023-05-24T04:02:39;15.30;99.90
2621;DHT22;1320;48.128;11.592;2023-05-24T04:05:05;15.30;99.90
2621;DHT22;1320;48.128;11.592;2023-05-24T04:07:35;15.30;99.90
2621;DHT22;1320;48.128;11.592;2023-05-24T04:10:02;15.30;99.90
2621;DHT22;1320;48.128;11.592;2023-05-24T04:12:29;15.30;99.90
2621;DHT22;1320;48.128;11.592;2023-05-24T04:14:55;15.20;99.90
2621;DHT22;1320;48.128;11.592;2023-05-24T04:17:21;15.20;99.90
2621;DHT22;1320;48.128;11.592;2023-05-24T04:19:49;15.20;99.90
2621;DHT22;1320;48.128;11.592;2023-05-24T04:22:16;15.20;99.90
2621;DHT22;1320;48.128;11.592;2023-05-24T04:24:43;15.20;99.90
2621;DHT22;1320;48.128;11.592;2023-05-24T04:27:09;15.20;99.90
2621;DHT22;1320;48.128;11.592;2023-05-24T04:29:35;15.20;99.90
2621;DHT22;1320;48.128;11.592;2023-05-24T04:32:01;15.20;99.90
2621;DHT22;1320;48.128;11.592;2023-05-24T04:34:28;15.20;99.90
2621;DHT22;1320;48.128;11.592;2023-05-24T04:36:58;15.10;99.90
2621;DHT22;1320;48.128;11.592;2023-05-24T04:39:24;15.10;99.90
2621;DHT22;1320;48.128;11.592;2023-05-24T04:41:50;15.20;99.90
2621;DHT22;1320;48.128;11.592;2023-05-24T04:44:17;15.20;99.90
2621;DHT22;1320;48.128;11.592;2023-05-24T04:46:43;15.20;99.90
2621;DHT22;1320;48.128;11.592;2023-05-24T04:49:09;15.30;99.90
2621;DHT22;1320;48.128;11.592;2023-05-24T04:51:35;15.30;99.90
2621;DHT22;1320;48.128;11.592;2023-05-24T04:54:03;15.30;99.90
2621;DHT22;1320;48.128;11.592;2023-05-24T04:56:33;15.30;99.90
2621;DHT22;1320;48.128;11.592;2023-05-24T04:58:59;15.30;99.90
2621;DHT22;1320;48.128;11.592;2023-05-24T05:01:25;15.30;99.90
2621;DHT22;1320;48.128;11.592;2023-05-24T05:03:51;15.30;99.90
2621;DHT22;1320;48.128;11.592;2023-05-24T05:06:16;15.30;99.90
2621;DHT22;1320;48.128;11.592;2023-05-24T05:08:42;15.30;99.90
2621;DHT22;1320;48.128;11.592;2023-05-24T05:11:08;15.20;99.90
2621;DHT22;1320;48.128;11.592;2023-05-24T05:13:34;15.20;99.90
2621;DHT22;1320;48.128;11.592;2023-05-24T05:16:00;15.20;99.90
2621;DHT22;1320;48.128;11.592;2023-05-24T05:18:26;15.30;99.90
2621;DHT22;1320;48.128;11.592;2023-05-24T05:20:51;15.30;99.90
2621;DHT22;1320;48.128;11.592;2023-05-24T05:23:17;15.30;99.90
2621;DHT22;1320;48.128;11.592;2023-05-24T05:25:43;15.30;99.90
2621;DHT22;1320;48.128;11.592;2023-05-24T05:28:08;15.30;99.90
2621;DHT22;1320;48.128;11.592;2023-05-24T05:30:34;15.30;99.90
2621;DHT22;1320;48.128;11.592;2023-05-24T05:33:00;15.30;99.90
2621;DHT22;1320;48.128;11.592;2023-05-24T05:35:25;15.20;99.90
2621;DHT22;1320;48.128;11.592;2023-05-24T05:37:51;15.20;99.90
2621;DHT22;1320;48.128;11.592;2023-05-24T05:40:17;15.20;99.90
2621;DHT22;1320;48.128;11.592;2023-05-24T05:42:42;15.20;99.90
2621;DHT22;1320;48.128;11.592;2023-05-24T05:45:08;15.10;99.90
2621;DHT22;1320;48.128;11.592;2023-05-24T05:47:34;15.10;99.90
2621;DHT22;1320;48.128;11.592;2023-05-24T05:50:00;15.10;99.90
2621;DHT22;1320;48.128;11.592;2023-05-24T05:52:26;15.10;99.90
2621;DHT22;1320;48.128;11.592;2023-05-24T05:54:52;15.00;99.90
2621;DHT22;1320;48.128;11.592;2023-05-24T05:57:18;15.10;99.90
2621;DHT22;1320;48.128;11.592;2023-05-24T05:59:48;15.10;99.90
2621;DHT22;1320;48.128;11.592;2023-05-24T06:02:14;15.20;99.90
2621;DHT22;1320;48.128;11.592;2023-05-24T06:04:40;15.20;99.90
2621;DHT22;1320;48.128;11.592;2023-05-24T06:07:05;15.20;99.90
2621;DHT22;1320;48.128;11.592;2023-05-24T06:09:31;15.30;99.90
2621;DHT22;1320;48.128;11.592;2023-05-24T06:11:57;15.40;99.90
2621;DHT22;1320;48.128;11.592;2023-05-24T06:14:22;15.40;99.90
2621;DHT22;1320;48.128;11.592;2023-05-24T06:16:49;15.50;99.90
2621;DHT22;1320;48.128;11.592;2023-05-24T06:19:16;15.60;99.90
2621;DHT22;1320;48.128;11.592;2023-05-24T06:21:47;15.60;99.90
2621;DHT22;1320;48.128;11.592;2023-05-24T06:24:14;15.70;99.90
2621;DHT22;1320;48.128;11.592;2023-05-24T06:26:45;15.70;99.90
2621;DHT22;1320;48.128;11.592;2023-05-24T06:29:11;15.80;99.90
2621;DHT22;1320;48.128;11.592;2023-05-24T06:31:36;15.80;99.90
2621;DHT22;1320;48.128;11.592;2023-05-24T06:34:02;15.90;99.90
2621;DHT22;1320;48.128;11.592;2023-05-24T06:36:28;16.00;99.90
2621;DHT22;1320;48.128;11.592;2023-05-24T06:38:53;16.00;99.90
2621;DHT22;1320;48.128;11.592;2023-05-24T06:41:19;16.20;99.90
2621;DHT22;1320;48.128;11.592;2023-05-24T06:43:48;16.40;99.90
2621;DHT22;1320;48.128;11.592;2023-05-24T06:46:14;16.50;99.90
2621;DHT22;1320;48.128;11.592;2023-05-24T06:48:40;16.60;99.90
2621;DHT22;1320;48.128;11.592;2023-05-24T06:51:05;16.40;99.90
2621;DHT22;1320;48.128;11.592;2023-05-24T06:53:31;16.20;99.90
2621;DHT22;1320;48.128;11.592;2023-05-24T06:55:57;16.20;99.90
2621;DHT22;1320;48.128;11.592;2023-05-24T06:58:22;16.20;99.90
2621;DHT22;1320;48.128;11.592;2023-05-24T07:00:48;16.30;99.90
2621;DHT22;1320;48.128;11.592;2023-05-24T07:03:14;16.30;99.90
2621;DHT22;1320;48.128;11.592;2023-05-24T07:05:40;16.40;99.90
2621;DHT22;1320;48.128;11.592;2023-05-24T07:08:06;16.40;99.90
2621;DHT22;1320;48.128;11.592;2023-05-24T07:10:32;16.50;99.90
2621;DHT22;1320;48.128;11.592;2023-05-24T07:12:57;16.50;99.90
2621;DHT22;1320;48.128;11.592;2023-05-24T07:15:23;16.60;99.90
2621;DHT22;1320;48.128;11.592;2023-05-24T07:17:49;16.70;99.90
2621;DHT22;1320;48.128;11.592;2023-05-24T07:20:14;16.70;99.90
2621;DHT22;1320;48.128;11.592;2023-05-24T07:22:40;16.70;99.90
2621;DHT22;1320;48.128;11.592;2023-05-24T07:25:06;16.80;99.90
2621;DHT22;1320;48.128;11.592;2023-05-24T07:27:32;16.80;99.90
2621;DHT22;1320;48.128;11.592;2023-05-24T07:29:58;16.90;99.90
2621;DHT22;1320;48.128;11.592;2023-05-24T07:32:23;17.00;99.90
2621;DHT22;1320;48.128;11.592;2023-05-24T07:34:50;17.10;99.90
2621;DHT22;1320;48.128;11.592;2023-05-24T07:37:16;17.30;99.90
2621;DHT22;1320;48.128;11.592;2023-05-24T07:39:42;17.30;99.90
2621;DHT22;1320;48.128;11.592;2023-05-24T07:42:08;17.30;99.90
2621;DHT22;1320;48.128;11.592;2023-05-24T07:44:33;17.30;99.90
2621;DHT22;1320;48.128;11.592;2023-05-24T07:46:59;17.30;99.90
2621;DHT22;1320;48.128;11.592;2023-05-24T07:49:27;17.30;99.90
2621;DHT22;1320;48.128;11.592;2023-05-24T07:51:52;17.40;99.90
2621;DHT22;1320;48.128;11.592;2023-05-24T07:54:21;17.50;99.90
2621;DHT22;1320;48.128;11.592;2023-05-24T07:56:47;17.60;99.90
2621;DHT22;1320;48.128;11.592;2023-05-24T07:59:13;17.70;99.90
2621;DHT22;1320;48.128;11.592;2023-05-24T08:01:39;17.70;99.90
2621;DHT22;1320;48.128;11.592;2023-05-24T08:04:05;17.70;99.90
2621;DHT22;1320;48.128;11.592;2023-05-24T08:06:34;17.80;99.90
2621;DHT22;1320;48.128;11.592;2023-05-24T08:09:03;17.80;99.90
2621;DHT22;1320;48.128;11.592;2023-05-24T08:11:30;17.80;99.90
2621;DHT22;1320;48.128;11.592;2023-05-24T08:13:55;17.90;99.90
2621;DHT22;1320;48.128;11.592;2023-05-24T08:16:21;17.80;99.90
2621;DHT22;1320;48.128;11.592;2023-05-24T08:18:47;17.80;99.90
2621;DHT22;1320;48.128;11.592;2023-05-24T08:21:12;17.90;99.90
2621;DHT22;1320;48.128;11.592;2023-05-24T08:23:38;17.90;99.90
2621;DHT22;1320;48.128;11.592;2023-05-24T08:26:04;18.00;99.60
2621;DHT22;1320;48.128;11.592;2023-05-24T08:28:29;18.00;99.60
2621;DHT22;1320;48.128;11.592;2023-05-24T08:30:55;18.00;99.80
2621;DHT22;1320;48.128;11.592;2023-05-24T08:33:21;18.10;99.80
2621;DHT22;1320;48.128;11.592;2023-05-24T08:35:48;18.10;99.60
2621;DHT22;1320;48.128;11.592;2023-05-24T08:38:14;18.20;99.40
2621;DHT22;1320;48.128;11.592;2023-05-24T08:40:40;18.20;99.40
2621;DHT22;1320;48.128;11.592;2023-05-24T08:43:06;18.20;99.10
2621;DHT22;1320;48.128;11.592;2023-05-24T08:45:37;18.20;99.20
2621;DHT22;1320;48.128;11.592;2023-05-24T08:48:04;18.30;99.20
2621;DHT22;1320;48.128;11.592;2023-05-24T08:50:31;18.30;99.10
2621;DHT22;1320;48.128;11.592;2023-05-24T08:52:58;18.30;99.20
2621;DHT22;1320;48.128;11.592;2023-05-24T08:55:24;18.40;98.70
2621;DHT22;1320;48.128;11.592;2023-05-24T08:57:51;18.40;98.60
2621;DHT22;1320;48.128;11.592;2023-05-24T09:00:17;18.30;98.70
2621;DHT22;1320;48.128;11.592;2023-05-24T09:02:44;18.20;98.60
2621;DHT22;1320;48.128;11.592;2023-05-24T09:05:12;18.10;98.80
2621;DHT22;1320;48.128;11.592;2023-05-24T09:07:42;18.10;99.10
2621;DHT22;1320;48.128;11.592;2023-05-24T09:10:09;18.00;99.20
2621;DHT22;1320;48.128;11.592;2023-05-24T09:12:39;18.00;99.00
2621;DHT22;1320;48.128;11.592;2023-05-24T09:15:08;18.10;99.10
2621;DHT22;1320;48.128;11.592;2023-05-24T09:17:34;18.30;98.80
2621;DHT22;1320;48.128;11.592;2023-05-24T09:20:01;18.30;98.30
2621;DHT22;1320;48.128;11.592;2023-05-24T09:22:28;18.30;98.40
2621;DHT22;1320;48.128;11.592;2023-05-24T09:25:02;18.20;98.30
2621;DHT22;1320;48.128;11.592;2023-05-24T09:27:31;18.10;98.50
2621;DHT22;1320;48.128;11.592;2023-05-24T09:29:57;18.10;98.20
2621;DHT22;1320;48.128;11.592;2023-05-24T09:32:23;18.10;98.00
2621;DHT22;1320;48.128;11.592;2023-05-24T09:34:51;18.00;97.80
2621;DHT22;1320;48.128;11.592;2023-05-24T09:37:20;18.10;98.00
2621;DHT22;1320;48.128;11.592;2023-05-24T09:39:47;18.00;97.60
2621;DHT22;1320;48.128;11.592;2023-05-24T09:42:22;18.00;97.70
2621;DHT22;1320;48.128;11.592;2023-05-24T09:47:32;18.00;97.60
2621;DHT22;1320;48.128;11.592;2023-05-24T09:49:59;18.00;97.70
2621;DHT22;1320;48.128;11.592;2023-05-24T09:52:26;18.00;97.80
2621;DHT22;1320;48.128;11.592;2023-05-24T09:54:52;18.00;97.90
2621;DHT22;1320;48.128;11.592;2023-05-24T09:57:18;17.90;98.10
2621;DHT22;1320;48.128;11.592;2023-05-24T09:59:47;17.90;98.20
2621;DHT22;1320;48.128;11.592;2023-05-24T10:02:14;18.00;98.00
2621;DHT22;1320;48.128;11.592;2023-05-24T10:04:43;18.10;97.80
2621;DHT22;1320;48.128;11.592;2023-05-24T10:07:09;18.10;98.10
2621;DHT22;1320;48.128;11.592;2023-05-24T10:09:37;18.10;98.30
2621;DHT22;1320;48.128;11.592;2023-05-24T10:12:04;18.00;98.40
2621;DHT22;1320;48.128;11.592;2023-05-24T10:14:35;18.00;98.70
2621;DHT22;1320;48.128;11.592;2023-05-24T10:17:05;17.90;98.70
2621;DHT22;1320;48.128;11.592;2023-05-24T10:19:35;17.80;98.70
2621;DHT22;1320;48.128;11.592;2023-05-24T10:22:06;17.70;98.80
2621;DHT22;1320;48.128;11.592;2023-05-24T10:24:38;17.70;99.20
2621;DHT22;1320;48.128;11.592;2023-05-24T10:27:08;17.60;99.40
2621;DHT22;1320;48.128;11.592;2023-05-24T10:32:17;17.50;99.90
2621;DHT22;1320;48.128;11.592;2023-05-24T10:34:44;17.50;99.90
2621;DHT22;1320;48.128;11.592;2023-05-24T10:37:13;17.50;99.90
2621;DHT22;1320;48.128;11.592;2023-05-24T10:39:40;17.40;99.90
2621;DHT22;1320;48.128;11.592;2023-05-24T10:42:06;17.40;99.90
2621;DHT22;1320;48.128;11.592;2023-05-24T10:44:32;17.40;99.90
2621;DHT22;1320;48.128;11.592;2023-05-24T10:47:11;17.40;99.90
2621;DHT22;1320;48.128;11.592;2023-05-24T10:49:53;17.30;99.90
2621;DHT22;1320;48.128;11.592;2023-05-24T10:52:19;17.40;99.90
2621;DHT22;1320;48.128;11.592;2023-05-24T10:55:05;17.30;99.90
2621;DHT22;1320;48.128;11.592;2023-05-24T10:57:33;17.40;99.90
2621;DHT22;1320;48.128;11.592;2023-05-24T11:02:59;17.30;99.90
2621;DHT22;1320;48.128;11.592;2023-05-24T11:05:33;17.30;99.90
2621;DHT22;1320;48.128;11.592;2023-05-24T11:07:58;17.20;99.60
2621;DHT22;1320;48.128;11.592;2023-05-24T11:10:32;17.20;99.50
2621;DHT22;1320;48.128;11.592;2023-05-24T11:13:01;17.20;99.10
2621;DHT22;1320;48.128;11.592;2023-05-24T11:15:28;17.20;99.40
2621;DHT22;1320;48.128;11.592;2023-05-24T11:20:37;17.20;99.10
2621;DHT22;1320;48.128;11.592;2023-05-24T11:23:07;17.10;99.10
2621;DHT22;1320;48.128;11.592;2023-05-24T11:25:37;17.00;99.40
2621;DHT22;1320;48.128;11.592;2023-05-24T11:28:10;17.00;99.40
2621;DHT22;1320;48.128;11.592;2023-05-24T11:30:44;17.00;99.20
2621;DHT22;1320;48.128;11.592;2023-05-24T11:33:20;17.00;99.30
2621;DHT22;1320;48.128;11.592;2023-05-24T11:35:47;17.00;99.10
2621;DHT22;1320;48.128;11.592;2023-05-24T11:38:15;17.10;99.00
2621;DHT22;1320;48.128;11.592;2023-05-24T11:40:42;17.10;99.10
2621;DHT22;1320;48.128;11.592;2023-05-24T11:43:20;17.20;99.00
2621;DHT22;1320;48.128;11.592;2023-05-24T11:45:50;17.40;99.00
2621;DHT22;1320;48.128;11.592;2023-05-24T11:48:17;17.50;98.70
2621;DHT22;1320;48.128;11.592;2023-05-24T11:50:45;17.70;98.50
2621;DHT22;1320;48.128;11.592;2023-05-24T11:53:12;17.80;98.50
2621;DHT22;1320;48.128;11.592;2023-05-24T11:55:40;17.80;98.40
2621;DHT22;1320;48.128;11.592;2023-05-24T11:58:31;17.90;98.60
2621;DHT22;1320;48.128;11.592;2023-05-24T12:00:57;17.90;98.10
2621;DHT22;1320;48.128;11.592;2023-05-24T12:03:22;18.00;98.00
2621;DHT22;1320;48.128;11.592;2023-05-24T12:05:48;18.10;97.60
2621;DHT22;1320;48.128;11.592;2023-05-24T12:08:14;18.20;97.10
2621;DHT22;1320;48.128;11.592;2023-05-24T12:10:41;18.20;97.00
2621;DHT22;1320;48.128;11.592;2023-05-24T12:13:37;18.10;97.00
2621;DHT22;1320;48.128;11.592;2023-05-24T12:16:04;18.10;96.80
2621;DHT22;1320;48.128;11.592;2023-05-24T12:18:31;18.00;97.00
2621;DHT22;1320;48.128;11.592;2023-05-24T12:20:56;18.00;97.20
2621;DHT22;1320;48.128;11.592;2023-05-24T12:23:24;18.00;96.90
2621;DHT22;1320;48.128;11.592;2023-05-24T12:25:57;18.00;96.10
2621;DHT22;1320;48.128;11.592;2023-05-24T12:28:24;18.00;96.20
2621;DHT22;1320;48.128;11.592;2023-05-24T12:30:49;18.00;96.20
2621;DHT22;1320;48.128;11.592;2023-05-24T12:33:17;17.90;95.80
2621;DHT22;1320;48.128;11.592;2023-05-24T12:35:43;17.90;95.90
2621;DHT22;1320;48.128;11.592;2023-05-24T12:38:09;17.90;96.10
2621;DHT22;1320;48.128;11.592;2023-05-24T12:40:35;17.90;96.30
2621;DHT22;1320;48.128;11.592;2023-05-24T12:43:03;17.90;96.10
2621;DHT22;1320;48.128;11.592;2023-05-24T12:45:29;17.80;95.40
2621;DHT22;1320;48.128;11.592;2023-05-24T12:47:57;17.80;95.30
2621;DHT22;1320;48.128;11.592;2023-05-24T12:50:25;17.70;95.40
2621;DHT22;1320;48.128;11.592;2023-05-24T12:52:51;17.70;95.20
2621;DHT22;1320;48.128;11.592;2023-05-24T12:55:22;17.60;95.40
2621;DHT22;1320;48.128;11.592;2023-05-24T12:57:48;17.60;95.40
2621;DHT22;1320;48.128;11.592;2023-05-24T13:00:19;17.70;95.30
2621;DHT22;1320;48.128;11.592;2023-05-24T13:02:45;17.60;95.50
2621;DHT22;1320;48.128;11.592;2023-05-24T13:05:11;17.60;95.40
2621;DHT22;1320;48.128;11.592;2023-05-24T13:07:37;17.70;95.10
2621;DHT22;1320;48.128;11.592;2023-05-24T13:10:07;17.90;94.80
2621;DHT22;1320;48.128;11.592;2023-05-24T13:12:33;18.10;94.70
2621;DHT22;1320;48.128;11.592;2023-05-24T13:14:58;18.30;94.90
2621;DHT22;1320;48.128;11.592;2023-05-24T13:17:24;18.40;94.00
2621;DHT22;1320;48.128;11.592;2023-05-24T13:19:50;18.50;94.00
2621;DHT22;1320;48.128;11.592;2023-05-24T13:22:16;18.50;94.20
2621;DHT22;1320;48.128;11.592;2023-05-24T13:24:42;18.60;94.30
2621;DHT22;1320;48.128;11.592;2023-05-24T13:27:08;18.70;93.70
2621;DHT22;1320;48.128;11.592;2023-05-24T13:29:33;18.70;93.70
2621;DHT22;1320;48.128;11.592;2023-05-24T13:31:59;18.80;93.70
2621;DHT22;1320;48.128;11.592;2023-05-24T13:34:25;18.90;93.40
2621;DHT22;1320;48.128;11.592;2023-05-24T13:36:52;18.90;93.50
2621;DHT22;1320;48.128;11.592;2023-05-24T13:39:22;19.00;93.50
2621;DHT22;1320;48.128;11.592;2023-05-24T13:41:48;18.90;92.80
2621;DHT22;1320;48.128;11.592;2023-05-24T13:44:14;18.80;92.60
2621;DHT22;1320;48.128;11.592;2023-05-24T13:46:41;18.80;92.70
2621;DHT22;1320;48.128;11.592;2023-05-24T13:49:07;18.80;93.00
2621;DHT22;1320;48.128;11.592;2023-05-24T13:51:34;18.80;92.70
2621;DHT22;1320;48.128;11.592;2023-05-24T13:54:00;18.70;93.00
2621;DHT22;1320;48.128;11.592;2023-05-24T13:56:26;18.60;92.70
2621;DHT22;1320;48.128;11.592;2023-05-24T13:58:57;18.50;92.60
2621;DHT22;1320;48.128;11.592;2023-05-24T14:01:23;18.40;93.20
2621;DHT22;1320;48.128;11.592;2023-05-24T14:03:49;18.40;92.90
2621;DHT22;1320;48.128;11.592;2023-05-24T14:06:15;18.50;92.60
2621;DHT22;1320;48.128;11.592;2023-05-24T14:08:40;18.50;92.60
2621;DHT22;1320;48.128;11.592;2023-05-24T14:11:07;18.40;92.60
2621;DHT22;1320;48.128;11.592;2023-05-24T14:13:32;18.40;92.00
2621;DHT22;1320;48.128;11.592;2023-05-24T14:15:58;18.40;92.20
2621;DHT22;1320;48.128;11.592;2023-05-24T14:18:24;18.30;92.20
2621;DHT22;1320;48.128;11.592;2023-05-24T14:20:49;18.30;92.20
2621;DHT22;1320;48.128;11.592;2023-05-24T14:23:15;18.30;91.60
2621;DHT22;1320;48.128;11.592;2023-05-24T14:25:41;18.30;92.20
2621;DHT22;1320;48.128;11.592;2023-05-24T14:28:06;18.40;92.20
2621;DHT22;1320;48.128;11.592;2023-05-24T14:30:35;18.40;92.20
2621;DHT22;1320;48.128;11.592;2023-05-24T14:33:02;18.50;91.90
2621;DHT22;1320;48.128;11.592;2023-05-24T14:35:27;18.50;90.80
2621;DHT22;1320;48.128;11.592;2023-05-24T14:37:53;18.50;90.70
2621;DHT22;1320;48.128;11.592;2023-05-24T14:40:19;18.50;90.90
2621;DHT22;1320;48.128;11.592;2023-05-24T14:42:44;18.40;91.40
2621;DHT22;1320;48.128;11.592;2023-05-24T14:45:10;18.30;91.10
2621;DHT22;1320;48.128;11.592;2023-05-24T14:47:36;18.40;91.10
2621;DHT22;1320;48.128;11.592;2023-05-24T14:50:02;18.40;91.00
2621;DHT22;1320;48.128;11.592;2023-05-24T14:52:28;18.40;90.90
2621;DHT22;1320;48.128;11.592;2023-05-24T14:54:55;18.40;90.70
2621;DHT22;1320;48.128;11.592;2023-05-24T14:57:21;18.50;90.50
2621;DHT22;1320;48.128;11.592;2023-05-24T14:59:46;18.50;90.20
2621;DHT22;1320;48.128;11.592;2023-05-24T15:02:12;18.50;90.20
2621;DHT22;1320;48.128;11.592;2023-05-24T15:04:37;18.50;90.00
2621;DHT22;1320;48.128;11.592;2023-05-24T15:07:03;18.60;89.60
2621;DHT22;1320;48.128;11.592;2023-05-24T15:09:29;18.60;90.40
2621;DHT22;1320;48.128;11.592;2023-05-24T15:11:54;18.70;90.50
2621;DHT22;1320;48.128;11.592;2023-05-24T15:14:20;18.80;90.40
2621;DHT22;1320;48.128;11.592;2023-05-24T15:16:46;18.90;90.70
2621;DHT22;1320;48.128;11.592;2023-05-24T15:19:13;19.10;90.50
2621;DHT22;1320;48.128;11.592;2023-05-24T15:21:38;19.20;90.10
2621;DHT22;1320;48.128;11.592;2023-05-24T15:24:04;19.40;90.00
2621;DHT22;1320;48.128;11.592;2023-05-24T15:26:30;19.50;89.60
2621;DHT22;1320;48.128;11.592;2023-05-24T15:28:56;19.70;88.90
2621;DHT22;1320;48.128;11.592;2023-05-24T15:33:48;19.90;88.70
2621;DHT22;1320;48.128;11.592;2023-05-24T15:36:14;20.00;88.30
2621;DHT22;1320;48.128;11.592;2023-05-24T15:38:41;20.00;88.50
2621;DHT22;1320;48.128;11.592;2023-05-24T15:41:07;20.10;90.00
2621;DHT22;1320;48.128;11.592;2023-05-24T15:43:33;20.20;89.20
2621;DHT22;1320;48.128;11.592;2023-05-24T15:45:59;20.50;88.40
2621;DHT22;1320;48.128;11.592;2023-05-24T15:48:24;20.80;87.00
2621;DHT22;1320;48.128;11.592;2023-05-24T15:50:50;21.20;85.90
2621;DHT22;1320;48.128;11.592;2023-05-24T15:53:16;21.60;84.50
2621;DHT22;1320;48.128;11.592;2023-05-24T15:55:42;22.10;83.50
2621;DHT22;1320;48.128;11.592;2023-05-24T16:00:34;22.80;83.70
2621;DHT22;1320;48.128;11.592;2023-05-24T16:03:00;23.10;82.60
2621;DHT22;1320;48.128;11.592;2023-05-24T16:05:25;23.50;81.60
2621;DHT22;1320;48.128;11.592;2023-05-24T16:07:52;23.70;80.20
2621;DHT22;1320;48.128;11.592;2023-05-24T16:10:18;24.00;80.10
2621;DHT22;1320;48.128;11.592;2023-05-24T16:12:44;24.10;79.10